createdAt,value
2019-03-22T00:00:36.631Z,102508.66
2019-03-22T00:03:01.126Z,102510.02
2019-03-22T00:05:25.615Z,102514.08
2019-03-22T00:07:50.102Z,102517.78
2019-03-22T00:10:14.521Z,102510.70
2019-03-22T00:12:38.930Z,102512.80
2019-03-22T00:15:04.841Z,102510.02
2019-03-22T00:17:29.332Z,102510.44
2019-03-22T00:19:53.771Z,102505.47
2019-03-22T00:22:18.196Z,102502.92
2019-03-22T00:24:42.619Z,102496.06
2019-03-22T00:27:15.989Z,102496.00
2019-03-22T00:29:33.183Z,102491.68
2019-03-22T00:31:57.625Z,102495.14
2019-03-22T00:34:22.133Z,102489.74
2019-03-22T00:36:46.619Z,102490.10
2019-03-22T00:39:11.056Z,102496.41
2019-03-22T00:41:35.478Z,102495.49
2019-03-22T00:43:59.903Z,102493.82
2019-03-22T00:46:24.452Z,102492.13
2019-03-22T00:48:48.861Z,102489.84
2019-03-22T00:51:13.301Z,102489.83
2019-03-22T00:53:37.716Z,102492.08
2019-03-22T00:56:02.144Z,102491.57
2019-03-22T00:58:26.557Z,102486.94
2019-03-22T01:00:52.417Z,102484.75
2019-03-22T01:03:17.129Z,102483.36
2019-03-22T01:05:41.795Z,102474.34
2019-03-22T01:08:06.286Z,102479.48
2019-03-22T01:10:30.724Z,102484.92
2019-03-22T01:12:55.217Z,102479.16
2019-03-22T01:15:33.868Z,102470.80
2019-03-22T01:17:58.280Z,102472.78
2019-03-22T01:20:22.790Z,102465.21
2019-03-22T01:22:47.206Z,102467.86
2019-03-22T01:25:11.987Z,102476.35
2019-03-22T01:27:40.594Z,102476.41
2019-03-22T01:30:02.680Z,102471.36
2019-03-22T01:32:27.101Z,102466.17
2019-03-22T01:34:51.537Z,102473.77
2019-03-22T01:37:16.026Z,102470.95
2019-03-22T01:39:40.454Z,102473.95
2019-03-22T01:42:04.945Z,102471.37
2019-03-22T01:44:29.362Z,102470.50
2019-03-22T01:46:53.799Z,102469.61
2019-03-22T01:49:18.208Z,102471.78
2019-03-22T01:51:42.657Z,102473.95
2019-03-22T01:54:07.134Z,102473.56
2019-03-22T01:56:31.583Z,102474.08
2019-03-22T01:58:56.148Z,102473.28
2019-03-22T02:01:20.569Z,102472.08
2019-03-22T02:03:44.994Z,102467.69
2019-03-22T02:06:09.566Z,102463.48
2019-03-22T02:08:34.057Z,102464.95
2019-03-22T02:10:58.478Z,102463.48
2019-03-22T02:13:22.895Z,102461.91
2019-03-22T02:15:47.316Z,102458.33
2019-03-22T02:18:11.732Z,102451.75
2019-03-22T02:20:36.181Z,102447.53
2019-03-22T02:23:00.663Z,102447.55
2019-03-22T02:25:25.206Z,102450.30
2019-03-22T02:27:49.688Z,102445.78
2019-03-22T02:30:15.670Z,102443.86
2019-03-22T02:32:40.132Z,102447.02
2019-03-22T02:35:06.553Z,102445.98
2019-03-22T02:37:30.922Z,102445.18
2019-03-22T02:39:55.391Z,102444.06
2019-03-22T02:42:19.778Z,102450.42
2019-03-22T02:44:44.194Z,102456.02
2019-03-22T02:47:08.778Z,102453.66
2019-03-22T02:49:33.204Z,102449.97
2019-03-22T02:51:57.636Z,102448.98
2019-03-22T02:54:22.081Z,102448.92
2019-03-22T02:56:46.577Z,102455.59
2019-03-22T02:59:11.001Z,102451.19
2019-03-22T03:01:35.445Z,102445.75
2019-03-22T03:03:59.847Z,102448.28
2019-03-22T03:06:24.361Z,102444.36
2019-03-22T03:08:48.763Z,102446.27
2019-03-22T03:11:13.349Z,102454.47
2019-03-22T03:13:42.620Z,102453.61
2019-03-22T03:16:07.984Z,102446.55
2019-03-22T03:18:32.401Z,102446.78
2019-03-22T03:20:57.225Z,102443.67
2019-03-22T03:23:21.622Z,102445.97
2019-03-22T03:25:46.092Z,102446.64
2019-03-22T03:28:10.480Z,102442.83
2019-03-22T03:30:34.994Z,102448.17
2019-03-22T03:32:59.478Z,102452.53
2019-03-22T03:35:24.045Z,102450.66
2019-03-22T03:37:48.457Z,102450.19
2019-03-22T03:40:14.305Z,102456.27
2019-03-22T03:42:38.876Z,102459.14
2019-03-22T03:45:03.948Z,102459.27
2019-03-22T03:47:28.400Z,102461.81
2019-03-22T03:49:52.893Z,102457.37
2019-03-22T03:52:17.342Z,102458.59
2019-03-22T03:54:41.850Z,102456.38
2019-03-22T03:57:06.386Z,102464.94
2019-03-22T03:59:30.817Z,102464.38
2019-03-22T04:01:55.320Z,102465.13
2019-03-22T04:04:19.799Z,102464.73
2019-03-22T04:06:44.229Z,102460.39
2019-03-22T04:09:08.715Z,102461.00
2019-03-22T04:11:33.150Z,102455.99
2019-03-22T04:13:57.608Z,102454.39
2019-03-22T04:16:22.055Z,102464.13
2019-03-22T04:18:46.460Z,102467.77
2019-03-22T04:21:10.899Z,102454.47
2019-03-22T04:23:35.321Z,102452.33
2019-03-22T04:26:00.339Z,102441.52
2019-03-22T04:28:24.745Z,102440.49
2019-03-22T04:30:49.157Z,102439.50
2019-03-22T04:33:13.580Z,102442.94
2019-03-22T04:35:38.005Z,102443.02
2019-03-22T04:38:02.434Z,102444.77
2019-03-22T04:40:28.480Z,102448.93
2019-03-22T04:42:53.346Z,102449.91
2019-03-22T04:45:17.895Z,102451.22
2019-03-22T04:47:45.886Z,102451.34
2019-03-22T04:50:09.705Z,102444.27
2019-03-22T04:52:34.299Z,102448.61
2019-03-22T04:55:00.850Z,102450.17
2019-03-22T04:57:27.121Z,102447.00
2019-03-22T04:59:51.677Z,102440.41
2019-03-22T05:02:17.536Z,102441.20
2019-03-22T05:04:44.799Z,102430.23
2019-03-22T05:07:09.545Z,102430.59
2019-03-22T05:09:35.590Z,102431.84
2019-03-22T05:12:02.712Z,102431.17
2019-03-22T05:14:29.067Z,102438.55
2019-03-22T05:16:55.312Z,102441.53
2019-03-22T05:19:22.369Z,102437.02
2019-03-22T05:21:48.633Z,102448.20
2019-03-22T05:24:15.182Z,102451.44
2019-03-22T05:26:40.689Z,102461.52
2019-03-22T05:29:06.666Z,102462.86
2019-03-22T05:31:34.129Z,102428.39
2019-03-22T05:33:58.627Z,102477.02
2019-03-22T05:36:23.396Z,102476.14
2019-03-22T05:38:47.893Z,102473.25
2019-03-22T05:41:13.789Z,102483.20
2019-03-22T05:43:38.317Z,102484.77
2019-03-22T05:46:02.731Z,102488.97
2019-03-22T05:48:27.154Z,102500.12
2019-03-22T05:50:51.552Z,102501.08
2019-03-22T05:53:15.982Z,102495.56
2019-03-22T05:55:40.392Z,102496.40
2019-03-22T05:58:04.899Z,102497.14
2019-03-22T06:00:29.315Z,102508.37
2019-03-22T06:02:53.742Z,102506.41
2019-03-22T06:05:18.138Z,102507.66
2019-03-22T06:07:42.575Z,102516.42
2019-03-22T06:10:07.923Z,102518.73
2019-03-22T06:12:32.370Z,102518.42
2019-03-22T06:14:56.787Z,102520.58
2019-03-22T06:17:21.211Z,102523.34
2019-03-22T06:19:45.626Z,102530.12
2019-03-22T06:22:10.049Z,102533.54
2019-03-22T06:24:34.566Z,102535.76
2019-03-22T06:26:59.035Z,102533.94
2019-03-22T06:29:23.471Z,102528.73
2019-03-22T06:31:47.887Z,102522.32
2019-03-22T06:34:12.328Z,102520.58
2019-03-22T06:36:36.804Z,102525.64
2019-03-22T06:39:01.246Z,102536.31
2019-03-22T06:41:25.665Z,102535.30
2019-03-22T06:43:50.092Z,102531.08
2019-03-22T06:46:14.512Z,102529.41
2019-03-22T06:48:38.948Z,102534.95
2019-03-22T06:51:03.430Z,102544.44
2019-03-22T06:53:27.862Z,102552.42
2019-03-22T06:55:52.285Z,102553.88
2019-03-22T06:58:16.708Z,102556.13
2019-03-22T07:00:41.193Z,102559.33
2019-03-22T07:03:05.700Z,102559.23
2019-03-22T07:05:30.480Z,102558.95
2019-03-22T07:07:55.388Z,102561.14
2019-03-22T07:10:19.801Z,102562.00
2019-03-22T07:12:44.287Z,102559.00
2019-03-22T07:15:08.870Z,102563.22
2019-03-22T07:17:33.282Z,102515.64
2019-03-22T07:19:57.808Z,102562.15
2019-03-22T07:22:22.226Z,102550.75
2019-03-22T07:24:46.661Z,102549.77
2019-03-22T07:27:11.146Z,102542.16
2019-03-22T07:29:35.580Z,102550.24
2019-03-22T07:31:59.984Z,102549.31
2019-03-22T07:34:24.421Z,102550.40
2019-03-22T07:36:48.857Z,102543.05
2019-03-22T07:39:13.260Z,102541.28
2019-03-22T07:41:37.810Z,102542.52
2019-03-22T07:44:02.239Z,102534.49
2019-03-22T07:46:26.667Z,102528.40
2019-03-22T07:48:51.123Z,102533.60
2019-03-22T07:51:15.531Z,102530.26
2019-03-22T07:53:40.263Z,102526.48
2019-03-22T07:56:04.997Z,102532.28
2019-03-22T07:58:29.409Z,102533.24
2019-03-22T08:00:53.834Z,102530.70
2019-03-22T08:03:18.252Z,102536.86
2019-03-22T08:05:50.859Z,102542.61
2019-03-22T08:08:08.881Z,102545.63
2019-03-22T08:10:33.326Z,102551.61
2019-03-22T08:12:57.731Z,102543.27
2019-03-22T08:15:32.094Z,102537.13
2019-03-22T08:17:57.271Z,102535.74
2019-03-22T08:20:21.872Z,102525.37
2019-03-22T08:22:46.463Z,102528.39
2019-03-22T08:25:10.866Z,102517.84
2019-03-22T08:27:35.287Z,102512.66
2019-03-22T08:29:59.729Z,102510.29
2019-03-22T08:32:24.149Z,102507.52
2019-03-22T08:34:48.590Z,102505.13
2019-03-22T08:37:13.001Z,102513.68
2019-03-22T08:39:37.486Z,102513.27
2019-03-22T08:42:01.980Z,102506.91
2019-03-22T08:44:26.530Z,102506.72
2019-03-22T08:46:51.003Z,102505.28
2019-03-22T08:49:15.483Z,102507.63
2019-03-22T08:51:40.011Z,102512.38
2019-03-22T08:54:04.517Z,102506.53
2019-03-22T08:56:29.018Z,102495.02
2019-03-22T08:58:53.432Z,102502.59
2019-03-22T09:01:17.975Z,102503.66
2019-03-22T09:03:42.363Z,102504.80
2019-03-22T09:06:07.973Z,102503.66
2019-03-22T09:08:32.501Z,102499.21
2019-03-22T09:10:56.980Z,102490.25
2019-03-22T09:13:21.501Z,102496.22
2019-03-22T09:15:46.039Z,102503.58
2019-03-22T09:18:10.500Z,102498.34
2019-03-22T09:20:34.891Z,102498.73
2019-03-22T09:22:59.436Z,102492.80
2019-03-22T09:25:23.927Z,102493.89
2019-03-22T09:27:48.343Z,102495.50
2019-03-22T09:30:14.650Z,102493.08
2019-03-22T09:32:39.141Z,102488.56
2019-03-22T09:35:04.037Z,102483.87
2019-03-22T09:37:28.545Z,102486.44
2019-03-22T09:39:53.039Z,102480.13
2019-03-22T09:42:17.448Z,102478.95
2019-03-22T09:44:44.242Z,102478.48
2019-03-22T09:47:08.062Z,102484.80
2019-03-22T09:49:32.481Z,102471.14
2019-03-22T09:51:56.906Z,102475.95
2019-03-22T09:54:21.452Z,102477.82
2019-03-22T09:56:47.414Z,102474.81
2019-03-22T09:59:12.136Z,102467.03
2019-03-22T10:01:36.641Z,102463.95
2019-03-22T10:04:01.082Z,102464.45
2019-03-22T10:06:25.490Z,102457.97
2019-03-22T10:08:49.940Z,102462.19
2019-03-22T10:11:14.367Z,102464.03
2019-03-22T10:13:38.829Z,102453.47
2019-03-22T10:16:03.409Z,102443.66
2019-03-22T10:18:27.897Z,102444.87
2019-03-22T10:20:52.351Z,102444.12
2019-03-22T10:23:16.808Z,102444.25
2019-03-22T10:25:41.558Z,102446.23
2019-03-22T10:28:06.156Z,102441.77
2019-03-22T10:30:30.642Z,102446.95
2019-03-22T10:32:55.102Z,102447.36
2019-03-22T10:35:25.903Z,102439.39
2019-03-22T10:37:45.652Z,102443.64
2019-03-22T10:40:10.197Z,102431.62
2019-03-22T10:42:34.629Z,102431.31
2019-03-22T10:44:59.110Z,102429.50
2019-03-22T10:47:23.552Z,102423.56
2019-03-22T10:49:47.955Z,102428.03
2019-03-22T10:52:12.398Z,102415.30
2019-03-22T10:54:36.811Z,102411.66
2019-03-22T10:57:01.315Z,102409.56
2019-03-22T10:59:28.721Z,102406.02
2019-03-22T11:02:03.184Z,102407.45
2019-03-22T11:04:19.386Z,102405.61
2019-03-22T11:06:43.802Z,102402.50
2019-03-22T11:09:08.885Z,102399.98
2019-03-22T11:11:33.296Z,102395.02
2019-03-22T11:13:57.801Z,102400.78
2019-03-22T11:16:22.237Z,102398.97
2019-03-22T11:18:46.666Z,102388.33
2019-03-22T11:21:11.093Z,102389.43
2019-03-22T11:23:35.598Z,102385.41
2019-03-22T11:26:03.991Z,102381.20
2019-03-22T11:28:26.156Z,102377.66
2019-03-22T11:30:50.573Z,102377.11
2019-03-22T11:33:15.083Z,102370.64
2019-03-22T11:35:39.561Z,102365.09
2019-03-22T11:38:04.139Z,102360.02
2019-03-22T11:40:28.556Z,102358.37
2019-03-22T11:42:52.962Z,102350.94
2019-03-22T11:45:20.130Z,102348.53
2019-03-22T11:47:44.544Z,102339.64
2019-03-22T11:50:10.427Z,102340.16
2019-03-22T11:52:34.973Z,102329.09
2019-03-22T11:54:59.440Z,102323.64
2019-03-22T11:57:23.940Z,102318.66
2019-03-22T11:59:48.378Z,102316.52
2019-03-22T12:02:21.975Z,102312.78
2019-03-22T12:04:38.927Z,102307.04
2019-03-22T12:07:03.409Z,102299.31
2019-03-22T12:09:27.928Z,102298.75
2019-03-22T12:11:52.518Z,102295.44
2019-03-22T12:14:16.969Z,102295.64
2019-03-22T12:16:41.457Z,102286.86
2019-03-22T12:19:06.046Z,102284.31
2019-03-22T12:21:30.438Z,102278.97
2019-03-22T12:23:54.885Z,102274.95
2019-03-22T12:26:19.442Z,102279.44
2019-03-22T12:28:43.854Z,102276.47
2019-03-22T12:31:08.365Z,102252.80
2019-03-22T12:33:32.766Z,102252.80
2019-03-22T12:35:57.281Z,102261.37
2019-03-22T12:38:21.690Z,102254.01
2019-03-22T12:40:46.139Z,102245.83
2019-03-22T12:43:10.554Z,102240.99
2019-03-22T12:45:35.329Z,102230.94
2019-03-22T12:47:59.923Z,102232.23
2019-03-22T12:50:25.101Z,102234.12
2019-03-22T12:52:49.519Z,102230.03
2019-03-22T12:55:14.309Z,102229.77
2019-03-22T12:57:38.867Z,102228.37
2019-03-22T13:00:04.891Z,102222.05
2019-03-22T13:02:29.370Z,102215.98
2019-03-22T13:04:53.826Z,102210.98
2019-03-22T13:07:18.236Z,102209.13
2019-03-22T13:09:42.726Z,102199.31
2019-03-22T13:12:07.225Z,102191.41
2019-03-22T13:14:31.853Z,102197.66
2019-03-22T13:16:56.297Z,102192.87
2019-03-22T13:19:20.719Z,102191.32
2019-03-22T13:21:45.160Z,102186.25
2019-03-22T13:24:09.593Z,102180.80
2019-03-22T13:26:34.036Z,102173.61
2019-03-22T13:28:58.452Z,102172.50
2019-03-22T13:31:22.895Z,102165.55
2019-03-22T13:33:47.310Z,102165.61
2019-03-22T13:36:11.941Z,102163.98
2019-03-22T13:38:36.367Z,102170.11
2019-03-22T13:41:00.785Z,102158.83
2019-03-22T13:43:25.208Z,102159.95
2019-03-22T13:45:49.647Z,102148.65
2019-03-22T13:48:14.066Z,102157.70
2019-03-22T13:50:38.572Z,102152.39
2019-03-22T13:53:03.061Z,102157.23
2019-03-22T13:55:27.679Z,102123.75
2019-03-22T13:57:52.214Z,102147.20
2019-03-22T14:00:18.961Z,102143.23
2019-03-22T14:02:43.442Z,102134.97
2019-03-22T14:05:08.805Z,102128.25
2019-03-22T14:07:33.246Z,102128.03
2019-03-22T14:10:00.842Z,102116.87
2019-03-22T14:12:25.269Z,102122.73
2019-03-22T14:14:49.679Z,102118.06
2019-03-22T14:17:14.109Z,102110.67
2019-03-22T14:19:38.525Z,102106.70
2019-03-22T14:22:02.970Z,102104.40
2019-03-22T14:24:27.450Z,102098.42
2019-03-22T14:26:51.886Z,102090.23
2019-03-22T14:29:16.313Z,102090.19
2019-03-22T14:31:40.756Z,102089.23
2019-03-22T14:34:05.248Z,102086.05
2019-03-22T14:36:29.699Z,102081.06
2019-03-22T14:38:54.188Z,102080.83
2019-03-22T14:41:18.657Z,102074.92
2019-03-22T14:43:43.084Z,102074.88
2019-03-22T14:46:07.611Z,102071.39
2019-03-22T14:48:32.039Z,102061.72
2019-03-22T14:50:56.487Z,102066.59
2019-03-22T14:53:20.900Z,102055.84
2019-03-22T14:55:45.349Z,102054.83
2019-03-22T14:58:09.838Z,102052.67
2019-03-22T15:00:34.271Z,102056.20
2019-03-22T15:02:58.764Z,102043.09
2019-03-22T15:05:23.197Z,102048.11
2019-03-22T15:07:47.710Z,102036.11
2019-03-22T15:10:13.531Z,102028.41
2019-03-22T15:12:38.110Z,102032.71
2019-03-22T15:15:20.413Z,102029.95
2019-03-22T15:18:04.800Z,102027.00
2019-03-22T15:20:36.991Z,102020.18
2019-03-22T15:23:03.082Z,102016.55
2019-03-22T15:25:44.253Z,102018.33
2019-03-22T15:28:26.477Z,102012.30
2019-03-22T15:30:52.538Z,102011.27
2019-03-22T15:33:34.105Z,102010.70
2019-03-22T15:36:08.456Z,102001.90
2019-03-22T15:38:43.533Z,102002.89
2019-03-22T15:41:08.073Z,102001.75
2019-03-22T15:43:32.516Z,101990.48
2019-03-22T15:45:57.006Z,101990.58
2019-03-22T15:48:21.472Z,101986.30
2019-03-22T15:50:45.892Z,101985.31
2019-03-22T15:53:10.337Z,101986.31
2019-03-22T15:55:34.820Z,101972.30
2019-03-22T15:57:59.251Z,101974.86
2019-03-22T16:00:23.668Z,101968.02
2019-03-22T16:02:48.102Z,101971.09
2019-03-22T16:05:13.252Z,101959.73
2019-03-22T16:07:37.841Z,101959.86
2019-03-22T16:10:02.310Z,101958.16
2019-03-22T16:12:26.765Z,101954.30
2019-03-22T16:14:51.287Z,101952.67
2019-03-22T16:17:15.776Z,101952.31
2019-03-22T16:19:40.285Z,101957.77
2019-03-22T16:22:04.768Z,101949.98
2019-03-22T16:24:29.222Z,101954.89
2019-03-22T16:26:53.704Z,101954.86
2019-03-22T16:29:18.207Z,101943.30
2019-03-22T16:31:42.692Z,101949.84
2019-03-22T16:34:19.084Z,101939.67
2019-03-22T16:36:43.495Z,101936.34
2019-03-22T16:39:17.760Z,101932.55
2019-03-22T16:41:43.144Z,101933.97
2019-03-22T16:44:07.735Z,101929.88
2019-03-22T16:46:32.209Z,101930.35
2019-03-22T16:48:56.630Z,101923.61
2019-03-22T16:51:21.046Z,101921.55
2019-03-22T16:53:45.541Z,101923.09
2019-03-22T16:56:09.988Z,101919.98
2019-03-22T16:58:34.359Z,101914.61
2019-03-22T17:00:58.857Z,101914.45
2019-03-22T17:03:23.260Z,101913.84
2019-03-22T17:05:47.762Z,101912.61
2019-03-22T17:08:12.251Z,101906.34
2019-03-22T17:10:37.412Z,101908.06
2019-03-22T17:13:01.886Z,101909.38
2019-03-22T17:15:26.394Z,101911.34
2019-03-22T17:17:50.805Z,101901.20
2019-03-22T17:20:15.404Z,101901.20
2019-03-22T17:22:39.885Z,101912.81
2019-03-22T17:25:06.169Z,101914.35
2019-03-22T17:27:30.673Z,101914.35
2019-03-22T17:29:55.099Z,101914.89
2019-03-22T17:32:19.506Z,101909.89
2019-03-22T17:34:43.935Z,101909.55
2019-03-22T17:37:08.348Z,101907.41
2019-03-22T17:39:32.780Z,101910.23
2019-03-22T17:41:57.193Z,101905.55
2019-03-22T17:44:21.602Z,101904.63
2019-03-22T17:46:46.105Z,101904.09
2019-03-22T17:49:10.516Z,101897.67
2019-03-22T17:51:34.941Z,101898.63
2019-03-22T17:53:59.352Z,101895.38
2019-03-22T17:56:23.900Z,101897.87
2019-03-22T17:58:48.301Z,101898.98
2019-03-22T18:01:12.743Z,101898.99
2019-03-22T18:03:37.166Z,101905.44
2019-03-22T18:06:02.851Z,101907.32
2019-03-22T18:08:27.206Z,101906.34
2019-03-22T18:10:51.801Z,101900.25
2019-03-22T18:13:16.306Z,101901.16
2019-03-22T18:15:40.750Z,101899.88
2019-03-22T18:18:05.309Z,101898.47
2019-03-22T18:20:29.838Z,101899.70
2019-03-22T18:22:54.257Z,101894.84
2019-03-22T18:25:21.563Z,101901.84
2019-03-22T18:27:45.990Z,101897.79
2019-03-22T18:30:16.230Z,101903.33
2019-03-22T18:32:40.753Z,101905.14
2019-03-22T18:35:05.908Z,101905.02
2019-03-22T18:37:30.347Z,101896.66
2019-03-22T18:39:54.767Z,101902.90
2019-03-22T18:42:20.085Z,101899.36
2019-03-22T18:44:44.493Z,101898.75
2019-03-22T18:47:09.007Z,101906.70
2019-03-22T18:49:33.429Z,101902.95
2019-03-22T18:51:57.882Z,101906.20
2019-03-22T18:54:22.295Z,101904.20
2019-03-22T18:56:46.834Z,101905.64
2019-03-22T18:59:11.253Z,101899.13
2019-03-22T19:01:35.694Z,101889.64
2019-03-22T19:04:00.183Z,101890.09
2019-03-22T19:06:24.603Z,101893.34
2019-03-22T19:08:49.049Z,101895.34
2019-03-22T19:11:13.470Z,101888.09
2019-03-22T19:13:41.773Z,101893.01
2019-03-22T19:16:07.940Z,101890.92
2019-03-22T19:18:32.849Z,101895.28
2019-03-22T19:20:57.454Z,101896.69
2019-03-22T19:23:21.979Z,101903.67
2019-03-22T19:25:48.015Z,101896.18
2019-03-22T19:28:12.482Z,101894.02
2019-03-22T19:30:36.959Z,101892.61
2019-03-22T19:33:01.405Z,101889.41
2019-03-22T19:35:25.832Z,101894.52
2019-03-22T19:37:50.289Z,101892.77
2019-03-22T19:40:16.238Z,101887.87
2019-03-22T19:42:40.667Z,101889.86
2019-03-22T19:45:08.224Z,101889.88
2019-03-22T19:47:32.621Z,101892.18
2019-03-22T19:49:57.073Z,101897.33
2019-03-22T19:52:21.527Z,101898.88
2019-03-22T19:54:45.985Z,101896.91
2019-03-22T19:57:10.534Z,101897.00
2019-03-22T19:59:34.987Z,101901.96
2019-03-22T20:01:59.418Z,101901.91
2019-03-22T20:04:23.859Z,101897.47
2019-03-22T20:06:48.339Z,101898.34
2019-03-22T20:09:12.882Z,101906.70
2019-03-22T20:11:37.345Z,101902.48
2019-03-22T20:14:01.853Z,101899.69
2019-03-22T20:16:26.442Z,101905.63
2019-03-22T20:18:50.879Z,101898.95
2019-03-22T20:21:15.308Z,101903.83
2019-03-22T20:23:39.755Z,101898.23
2019-03-22T20:26:04.309Z,101896.23
2019-03-22T20:28:28.747Z,101898.70
2019-03-22T20:30:53.176Z,101895.20
2019-03-22T20:33:17.735Z,101894.77
2019-03-22T20:35:42.159Z,101893.11
2019-03-22T20:38:06.722Z,101891.03
2019-03-22T20:40:31.222Z,101889.16
2019-03-22T20:42:55.642Z,101882.41
2019-03-22T20:45:24.362Z,101880.80
2019-03-22T20:47:46.200Z,101875.90
2019-03-22T20:50:11.995Z,101879.30
2019-03-22T20:52:36.505Z,101873.01
2019-03-22T20:55:01.700Z,101871.47
2019-03-22T20:57:26.126Z,101869.88
2019-03-22T20:59:50.589Z,101866.22
2019-03-22T21:02:14.997Z,101862.55
2019-03-22T21:04:39.443Z,101868.88
2019-03-22T21:07:03.929Z,101868.08
2019-03-22T21:09:28.392Z,101864.64
2019-03-22T21:11:52.806Z,101864.69
2019-03-22T21:14:17.231Z,101861.36
2019-03-22T21:16:41.733Z,101863.48
2019-03-22T21:19:10.443Z,101862.53
2019-03-22T21:21:36.495Z,101866.81
2019-03-22T21:24:01.101Z,101864.17
2019-03-22T21:26:25.534Z,101858.91
2019-03-22T21:28:49.960Z,101857.09
2019-03-22T21:31:14.475Z,101857.88
2019-03-22T21:33:38.905Z,101852.97
2019-03-22T21:36:03.335Z,101853.33
2019-03-22T21:38:27.812Z,101853.41
2019-03-22T21:40:52.257Z,101844.40
2019-03-22T21:43:16.675Z,101841.59
2019-03-22T21:45:41.174Z,101834.95
2019-03-22T21:48:05.590Z,101839.41
2019-03-22T21:50:30.122Z,101841.62
2019-03-22T21:52:54.541Z,101837.23
2019-03-22T21:55:19.087Z,101837.39
2019-03-22T21:57:43.504Z,101838.81
2019-03-22T22:00:12.344Z,101835.12
2019-03-22T22:02:36.821Z,101840.00
2019-03-22T22:05:01.258Z,101831.45
2019-03-22T22:07:25.678Z,101826.72
2019-03-22T22:09:50.165Z,101825.58
2019-03-22T22:12:14.675Z,101817.44
2019-03-22T22:14:41.000Z,101821.80
2019-03-22T22:17:05.462Z,101814.17
2019-03-22T22:19:29.867Z,101815.03
2019-03-22T22:21:54.310Z,101817.04
2019-03-22T22:24:18.734Z,101814.25
2019-03-22T22:26:43.165Z,101810.75
2019-03-22T22:29:07.568Z,101808.05
2019-03-22T22:31:32.191Z,101803.59
2019-03-22T22:33:56.706Z,101797.31
2019-03-22T22:36:21.221Z,101800.62
2019-03-22T22:38:45.634Z,101796.20
2019-03-22T22:41:10.070Z,101788.77
2019-03-22T22:43:34.558Z,101793.22
2019-03-22T22:45:59.060Z,101791.53
2019-03-22T22:48:23.473Z,101791.37
2019-03-22T22:50:47.907Z,101786.70
2019-03-22T22:53:12.447Z,101787.22
2019-03-22T22:55:37.827Z,101783.88
2019-03-22T22:58:02.296Z,101783.73
2019-03-22T23:00:28.419Z,101778.34
2019-03-22T23:02:52.859Z,101777.80
2019-03-22T23:05:17.357Z,101769.07
2019-03-22T23:07:42.008Z,101769.37
2019-03-22T23:10:06.559Z,101771.63
2019-03-22T23:12:31.008Z,101769.98
2019-03-22T23:14:55.421Z,101759.94
2019-03-22T23:17:19.953Z,101756.36
2019-03-22T23:19:44.373Z,101746.78
2019-03-22T23:22:08.791Z,101746.97
2019-03-22T23:24:33.213Z,101746.14
2019-03-22T23:26:57.659Z,101716.91
2019-03-22T23:29:22.076Z,101746.34
2019-03-22T23:31:46.557Z,101747.98
2019-03-22T23:34:10.974Z,101739.45
2019-03-22T23:36:35.462Z,101736.55
2019-03-22T23:38:59.988Z,101733.51
2019-03-22T23:41:24.422Z,101740.75
2019-03-22T23:43:48.859Z,101727.94
2019-03-22T23:46:13.347Z,101729.53
2019-03-22T23:48:37.805Z,101721.75
2019-03-22T23:51:02.218Z,101723.26
2019-03-22T23:53:26.646Z,101717.97
2019-03-22T23:55:51.067Z,101714.07
2019-03-22T23:58:15.561Z,101709.38
